Time;durP1;ratioP1;P1;durP2;ratioP2;P2;SDS_P1;SDS_P2;PMS_P1;PMS_P2;Temp;Humidity;BMP_temperature;BMP_pressure;BME280_temperature;BME280_humidity;BME280_pressure;Samples;Min_cycle;Max_cycle;Signal;HPM_P1;HPM_P2
2021/08/30 00:00:34;;;;;;;12.80;11.50;;;;;;;17.93;88.56;94523.25;5072796;28;20537;-85
2021/08/30 00:03:02;;;;;;;12.80;10.83;;;;;;;17.95;88.33;94518.59;5037394;28;20506;-85
2021/08/30 00:05:30;;;;;;;15.23;12.30;;;;;;;17.94;88.33;94524.06;5072981;28;20531;-85
2021/08/30 00:07:57;;;;;;;17.80;11.80;;;;;;;17.95;88.68;94526.53;5072898;28;20464;-85
2021/08/30 00:10:25;;;;;;;16.37;11.87;;;;;;;17.94;88.87;94526.72;5072749;28;21119;-85
2021/08/30 00:12:53;;;;;;;13.27;10.47;;;;;;;17.94;88.72;94530.22;5072726;28;20546;-85
2021/08/30 00:15:21;;;;;;;13.47;10.90;;;;;;;17.94;89.17;94530.22;5072560;28;20446;-86
2021/08/30 00:17:49;;;;;;;12.83;11.40;;;;;;;17.92;89.53;94526.88;5072717;28;20485;-86
2021/08/30 00:20:18;;;;;;;13.70;11.47;;;;;;;17.91;89.76;94525.25;5072566;28;21028;-86
2021/08/30 00:22:47;;;;;;;11.73;10.50;;;;;;;17.87;90.11;94531.94;5072629;28;20522;-86
2021/08/30 00:25:15;;;;;;;11.63;10.43;;;;;;;17.90;89.49;94536.88;5072804;28;20454;-85
2021/08/30 00:27:42;;;;;;;13.17;11.77;;;;;;;17.90;89.01;94533.38;5072444;28;20441;-85
2021/08/30 00:30:10;;;;;;;14.83;10.00;;;;;;;17.87;88.92;94542.53;5020819;28;20449;-85
2021/08/30 00:32:37;;;;;;;13.17;11.60;;;;;;;17.86;88.88;94535.59;5072586;28;20449;-85
2021/08/30 00:35:06;;;;;;;12.33;9.70;;;;;;;17.84;88.89;94537.59;5036871;28;20445;-85
2021/08/30 00:37:33;;;;;;;11.43;10.23;;;;;;;17.83;88.68;94541.25;5037096;28;20493;-85
2021/08/30 00:40:02;;;;;;;15.07;10.27;;;;;;;17.77;87.97;94539.34;5072543;28;20448;-85
2021/08/30 00:42:29;;;;;;;14.63;9.43;;;;;;;17.72;87.73;94540.91;5072097;28;20475;-85
2021/08/30 00:44:56;;;;;;;12.47;9.60;;;;;;;17.71;88.05;94545.38;5072218;28;20469;-85
2021/08/30 00:47:23;;;;;;;14.83;10.97;;;;;;;17.70;88.16;94548.22;5072480;28;20514;-85
2021/08/30 00:49:51;;;;;;;11.33;9.97;;;;;;;17.65;87.25;94557.53;5072338;28;20438;-84
2021/08/30 00:52:17;;;;;;;12.57;10.60;;;;;;;17.51;86.65;94555.66;5072700;28;20889;-85
2021/08/30 00:54:44;;;;;;;11.83;10.43;;;;;;;17.52;87.33;94556.50;5036731;28;20456;-85
2021/08/30 00:57:13;;;;;;;12.03;10.80;;;;;;;17.49;87.28;94551.53;5071981;28;20499;-86
2021/08/30 00:59:42;;;;;;;12.30;11.00;;;;;;;17.50;88.01;94554.00;5020808;28;20442;-85
2021/08/30 01:02:10;;;;;;;13.33;10.83;;;;;;;17.48;87.33;94555.22;5072370;28;20827;-85
2021/08/30 01:04:37;;;;;;;12.33;11.07;;;;;;;17.27;87.04;94554.06;5072223;28;20833;-87
2021/08/30 01:07:12;;;;;;;12.40;11.20;;;;;;;17.24;87.84;94557.06;5072369;28;20520;-86
2021/08/30 01:09:45;;;;;;;15.80;10.60;;;;;;;17.22;87.86;94556.41;5071941;28;20535;-85
2021/08/30 01:12:17;;;;;;;10.67;9.67;;;;;;;17.06;87.53;94556.56;5072222;28;20441;-86
2021/08/30 01:14:49;;;;;;;12.77;11.37;;;;;;;17.08;88.18;94561.69;5036516;28;20440;-85
2021/08/30 01:17:18;;;;;;;11.00;9.90;;;;;;;17.03;88.29;94563.03;5071864;28;20484;-85
2021/08/30 01:19:53;;;;;;;11.90;10.00;;;;;;;17.03;88.17;94562.19;5071838;28;20553;-85
2021/08/30 01:22:21;;;;;;;12.30;11.13;;;;;;;17.05;88.64;94560.19;5072203;28;20438;-85
2021/08/30 01:24:50;;;;;;;11.33;9.60;;;;;;;17.07;88.80;94558.22;5072675;28;20876;-86
2021/08/30 01:27:19;;;;;;;15.60;11.33;;;;;;;17.02;87.63;94560.56;5075770;28;20527;-86
2021/08/30 01:29:57;;;;;;;10.40;9.23;;;;;;;16.96;88.32;94561.28;5075328;28;20449;-85
2021/08/30 01:32:34;;;;;;;13.50;10.90;;;;;;;16.87;88.73;94563.16;5075627;28;20547;-84
2021/08/30 01:35:04;;;;;;;11.80;9.80;;;;;;;16.86;89.24;94577.41;5075668;28;20539;-85
2021/08/30 01:37:33;;;;;;;11.63;9.40;;;;;;;16.71;88.70;94560.59;5075325;28;21020;-86
2021/08/30 01:40:01;;;;;;;10.50;9.10;;;;;;;16.79;89.71;94573.00;5075367;28;20445;-85
2021/08/30 01:42:30;;;;;;;11.67;9.73;;;;;;;16.83;90.26;94576.94;5075518;28;20797;-85
2021/08/30 01:44:58;;;;;;;14.23;9.37;;;;;;;16.83;89.43;94576.94;5075190;28;20441;-85
2021/08/30 01:47:26;;;;;;;11.00;8.80;;;;;;;16.81;89.12;94573.66;5075547;28;20527;-85
2021/08/30 01:50:02;;;;;;;14.27;12.20;;;;;;;16.84;88.49;94574.13;5075759;28;20449;-85
2021/08/30 01:52:30;;;;;;;12.33;9.00;;;;;;;16.83;88.53;94571.66;5042146;28;20442;-85
2021/08/30 01:55:02;;;;;;;9.90;8.90;;;;;;;16.80;88.35;94567.53;5074995;28;20532;-85
2021/08/30 01:57:38;;;;;;;11.27;8.30;;;;;;;16.81;87.85;94560.41;5075013;28;20478;-85
2021/08/30 02:02:51;;;;;;;10.37;8.33;;;;;;;16.71;87.67;94569.38;5077621;28;20428;-86
2021/08/30 02:05:19;;;;;;;9.87;8.87;;;;;;;16.66;87.73;94568.25;5074803;28;21047;-86
2021/08/30 02:07:46;;;;;;;9.70;8.17;;;;;;;16.71;88.49;94573.84;5075320;28;20469;-85
2021/08/30 02:10:13;;;;;;;8.53;7.73;;;;;;;16.75;88.38;94576.97;5075120;28;20936;-85
2021/08/30 02:12:40;;;;;;;9.47;8.00;;;;;;;16.72;87.69;94571.03;5074811;28;20441;-86
2021/08/30 02:15:08;;;;;;;12.70;7.70;;;;;;;16.68;87.78;94585.63;5075051;28;20451;-85
2021/08/30 02:17:37;;;;;;;9.40;7.57;;;;;;;16.69;87.73;94581.97;5074802;28;20484;-85
2021/08/30 02:20:12;;;;;;;15.17;8.13;;;;;;;16.70;87.39;94582.81;5075203;28;20894;-85
2021/08/30 02:22:45;;;;;;;9.33;8.00;;;;;;;16.76;87.84;94595.34;5074532;28;20493;-85
2021/08/30 02:25:14;;;;;;;9.00;7.83;;;;;;;16.78;87.11;94589.91;5074455;28;21008;-85
2021/08/30 02:27:45;;;;;;;9.40;8.40;;;;;;;16.83;86.87;94592.84;5074565;28;20978;-86
2021/08/30 02:30:18;;;;;;;7.83;7.10;;;;;;;16.76;87.35;94587.41;5074560;28;20951;-85
2021/08/30 02:32:47;;;;;;;12.00;8.47;;;;;;;16.80;87.57;94582.59;5074661;28;20451;-85
2021/08/30 02:35:18;;;;;;;10.40;7.97;;;;;;;16.76;87.41;94592.69;5074354;28;20440;-86
2021/08/30 02:37:49;;;;;;;8.87;8.03;;;;;;;16.67;87.14;94594.56;5074515;28;20855;-85
2021/08/30 02:40:19;;;;;;;10.87;8.10;;;;;;;16.64;87.63;94596.72;5074509;28;20847;-85
2021/08/30 02:42:48;;;;;;;10.50;6.93;;;;;;;16.33;88.05;94594.88;5074459;28;20531;-86
2021/08/30 02:45:16;;;;;;;8.13;7.20;;;;;;;16.36;88.74;94599.00;5055591;28;20528;-85
2021/08/30 02:47:43;;;;;;;13.03;8.97;;;;;;;16.43;88.96;94599.97;5074355;28;20451;-85
2021/08/30 02:50:12;;;;;;;14.13;7.80;;;;;;;16.50;89.29;94598.31;5074028;28;20468;-85
2021/08/30 02:52:39;;;;;;;8.70;7.80;;;;;;;16.57;88.98;94598.44;5039105;28;20451;-86
2021/08/30 02:55:09;;;;;;;8.33;7.47;;;;;;;16.62;88.94;94594.25;5038412;28;20459;-85
2021/08/30 02:57:38;;;;;;;8.13;7.30;;;;;;;16.69;88.47;94595.22;5073905;28;20575;-86
2021/08/30 03:00:06;;;;;;;8.40;7.13;;;;;;;16.77;87.73;94604.13;5074175;28;20469;-85
2021/08/30 03:02:34;;;;;;;8.83;7.17;;;;;;;16.77;87.06;94604.97;5039489;28;20449;-86
2021/08/30 03:05:02;;;;;;;8.97;7.30;;;;;;;16.80;87.30;94609.09;5074024;28;20433;-85
2021/08/30 03:07:30;;;;;;;7.07;6.17;;;;;;;16.80;86.76;94609.09;5073526;28;20450;-85
2021/08/30 03:09:58;;;;;;;9.10;6.93;;;;;;;16.75;86.83;94606.94;5073791;28;20445;-85
2021/08/30 03:12:29;;;;;;;7.60;6.77;;;;;;;16.73;86.63;94603.66;5073551;28;20527;-85
2021/08/30 03:15:03;;;;;;;12.03;8.20;;;;;;;16.65;86.31;94601.84;5073869;28;20432;-85
2021/08/30 03:17:32;;;;;;;8.23;6.93;;;;;;;16.56;87.00;94608.19;5073612;28;20449;-86
2021/08/30 03:20:01;;;;;;;8.00;7.00;;;;;;;16.50;87.19;94608.06;5073711;28;20892;-86
2021/08/30 03:22:28;;;;;;;7.93;6.80;;;;;;;16.46;87.89;94607.56;5073316;28;20440;-85
2021/08/30 03:24:57;;;;;;;10.10;8.17;;;;;;;16.42;87.74;94614.22;5073326;28;20452;-85
2021/08/30 03:27:27;;;;;;;8.80;6.80;;;;;;;16.44;87.80;94620.16;5073427;28;20494;-86
2021/08/30 03:29:54;;;;;;;8.77;6.63;;;;;;;16.37;87.94;94613.91;5073496;28;20477;-85
2021/08/30 03:32:22;;;;;;;8.57;7.67;;;;;;;16.19;88.49;94616.81;5073304;28;20451;-85
2021/08/30 03:34:50;;;;;;;10.37;7.33;;;;;;;16.14;88.56;94618.28;5073341;28;20957;-86
2021/08/30 03:37:18;;;;;;;11.77;8.37;;;;;;;16.15;88.79;94620.75;5073185;28;20531;-85
2021/08/30 03:39:46;;;;;;;8.23;6.67;;;;;;;16.17;88.63;94617.94;5073033;28;21058;-85
2021/08/30 03:42:14;;;;;;;9.80;7.80;;;;;;;16.16;88.86;94622.41;5073147;28;20444;-85
2021/08/30 03:44:42;;;;;;;9.67;7.67;;;;;;;16.23;89.06;94627.88;5072911;28;20533;-85
2021/08/30 03:47:11;;;;;;;7.83;6.27;;;;;;;16.25;89.13;94632.00;5037495;28;20476;-84
2021/08/30 03:49:40;;;;;;;9.73;6.50;;;;;;;16.40;90.29;94634.75;5072712;28;20444;-84
2021/08/30 03:52:10;;;;;;;7.87;7.10;;;;;;;16.65;88.61;94633.63;5073069;28;20531;-84
2021/08/30 03:54:37;;;;;;;8.82;7.25;;;;;;;16.84;87.78;94631.59;5037874;28;20510;-82
2021/08/30 03:57:05;;;;;;;10.20;7.30;;;;;;;16.87;86.28;94642.66;5074149;28;20483;-83
2021/08/30 03:59:36;;;;;;;10.87;7.67;;;;;;;16.84;86.02;94643.03;5073460;28;20472;-83
2021/08/30 04:02:06;;;;;;;14.67;7.03;;;;;;;16.81;85.79;94637.25;5073574;28;20451;-81
2021/08/30 04:04:34;;;;;;;22.77;8.20;;;;;;;16.77;86.44;94636.78;5073904;28;20448;-81
2021/08/30 04:07:04;;;;;;;12.67;8.30;;;;;;;16.76;86.56;94635.09;5074217;28;20446;-82
2021/08/30 04:09:32;;;;;;;9.90;6.87;;;;;;;16.76;86.39;94635.09;5073552;28;20503;-81
2021/08/30 04:11:59;;;;;;;11.77;7.80;;;;;;;16.81;86.77;94638.06;5073857;28;20552;-81
2021/08/30 04:14:26;;;;;;;11.33;6.87;;;;;;;16.94;86.39;94642.78;5073418;28;20924;-81
2021/08/30 04:16:53;;;;;;;9.97;6.97;;;;;;;17.11;85.08;94643.53;5038744;28;20463;-81
2021/08/30 04:19:22;;;;;;;12.30;7.80;;;;;;;17.38;84.41;94645.66;5073871;28;20473;-81
2021/08/30 04:21:49;;;;;;;12.63;6.93;;;;;;;17.97;82.79;94645.84;5073135;28;20537;-81
2021/08/30 04:24:17;;;;;;;7.93;6.23;;;;;;;18.66;78.86;94653.56;5074388;28;20483;-82
2021/08/30 04:26:45;;;;;;;8.80;7.27;;;;;;;19.51;75.23;94651.03;5074657;28;20456;-82
2021/08/30 04:29:12;;;;;;;6.93;5.60;;;;;;;20.23;72.67;94656.13;5073602;28;20449;-83
2021/08/30 04:31:39;;;;;;;10.03;5.63;;;;;;;20.89;69.27;94656.53;5073486;28;20481;-82
2021/08/30 04:34:06;;;;;;;13.13;6.27;;;;;;;21.58;66.96;94667.03;5073540;28;20825;-82
2021/08/30 04:36:35;;;;;;;7.70;6.50;;;;;;;22.02;64.51;94673.66;5072449;28;20924;-82
2021/08/30 04:39:02;;;;;;;9.87;5.90;;;;;;;22.48;62.60;94665.59;5072363;28;20482;-82
2021/08/30 04:41:29;;;;;;;10.10;6.50;;;;;;;22.97;61.03;94676.81;5020074;28;20430;-83
2021/08/30 04:43:56;;;;;;;7.37;5.07;;;;;;;23.23;58.79;94655.31;5020462;28;20518;-82
2021/08/30 04:46:23;;;;;;;5.23;4.83;;;;;;;23.51;56.48;94662.16;5020245;28;20435;-80
2021/08/30 04:48:49;;;;;;;5.20;4.80;;;;;;;23.72;56.14;94659.19;5020102;28;20431;-82
2021/08/30 04:51:16;;;;;;;5.60;4.87;;;;;;;23.95;56.32;94655.91;5071848;28;20520;-80
2021/08/30 04:53:45;;;;;;;7.73;5.20;;;;;;;24.19;56.80;94662.31;5071162;28;20454;-82
2021/08/30 04:56:12;;;;;;;10.17;5.80;;;;;;;24.34;53.66;94663.66;5071697;28;21013;-80
2021/08/30 04:58:39;;;;;;;6.10;5.60;;;;;;;24.47;52.38;94660.00;5071652;28;20480;-81
2021/08/30 05:01:06;;;;;;;6.63;5.57;;;;;;;24.54;53.35;94660.75;5076165;28;20947;-82
2021/08/30 05:03:33;;;;;;;5.10;4.70;;;;;;;24.47;50.34;94656.50;5075844;28;20531;-81
2021/08/30 05:06:00;;;;;;;8.77;5.07;;;;;;;24.09;51.63;94655.59;5075836;28;20443;-81
2021/08/30 05:08:26;;;;;;;6.10;5.60;;;;;;;23.87;52.62;94650.81;5040061;28;20831;-80
2021/08/30 05:10:55;;;;;;;5.97;5.47;;;;;;;23.57;52.33;94653.28;5075825;28;20449;-82
2021/08/30 05:13:22;;;;;;;6.40;5.80;;;;;;;23.60;54.31;94648.31;5075276;28;20455;-81
2021/08/30 05:15:49;;;;;;;6.13;5.53;;;;;;;23.56;52.67;94654.31;5075414;28;20523;-81
2021/08/30 05:18:16;;;;;;;7.83;5.57;;;;;;;23.48;53.63;94656.19;5075975;28;20521;-82
2021/08/30 05:20:46;;;;;;;7.37;5.80;;;;;;;23.55;53.84;94663.38;5074898;28;20458;-83
2021/08/30 05:23:13;;;;;;;6.30;5.17;;;;;;;23.28;53.69;94660.00;5075557;28;20448;-84
2021/08/30 05:25:40;;;;;;;12.50;5.87;;;;;;;23.20;63.47;94660.25;5075161;28;20447;-85
2021/08/30 05:28:09;;;;;;;6.50;4.90;;;;;;;23.45;56.70;94653.94;5075933;28;20445;-83
2021/08/30 05:30:36;;;;;;;6.80;6.07;;;;;;;23.64;54.33;94664.78;5070318;28;20486;-82
2021/08/30 05:33:04;;;;;;;5.77;5.17;;;;;;;23.94;55.90;94659.63;5073929;28;20534;-85
2021/08/30 05:35:31;;;;;;;7.90;6.70;;;;;;;24.44;53.90;94665.81;5074115;28;20880;-84
2021/08/30 05:37:58;;;;;;;6.70;5.87;;;;;;;24.49;50.29;94663.28;5073325;28;20860;-83
2021/08/30 05:40:25;;;;;;;5.67;5.17;;;;;;;24.41;50.68;94663.59;5072648;28;20577;-82
2021/08/30 05:42:52;;;;;;;5.47;5.03;;;;;;;24.03;51.16;94664.50;5073327;28;20548;-82
2021/08/30 05:45:21;;;;;;;6.30;5.13;;;;;;;23.84;55.38;94662.78;5073227;28;20534;-83
2021/08/30 05:47:48;;;;;;;10.03;6.13;;;;;;;24.26;52.96;94665.75;5072790;28;20462;-83
2021/08/30 05:50:15;;;;;;;7.37;6.00;;;;;;;24.46;50.79;94661.06;5072876;28;20454;-83
2021/08/30 05:52:42;;;;;;;5.83;5.20;;;;;;;24.00;50.54;94661.44;5072392;28;20961;-83
2021/08/30 05:55:10;;;;;;;6.97;5.87;;;;;;;24.08;54.42;94664.66;5072518;28;20447;-83
2021/08/30 05:57:37;;;;;;;5.20;4.80;;;;;;;24.00;50.62;94661.44;5072739;28;20809;-82
2021/08/30 06:00:06;;;;;;;6.73;4.90;;;;;;;23.66;51.05;94662.69;5073118;28;20482;-82
2021/08/30 06:02:35;;;;;;;6.60;6.00;;;;;;;23.63;51.99;94665.81;5072777;28;20498;-82
2021/08/30 06:05:02;;;;;;;6.73;5.70;;;;;;;23.36;52.16;94659.75;5037651;28;20824;-84
2021/08/30 06:07:29;;;;;;;9.47;5.93;;;;;;;23.02;52.66;94669.81;5075697;28;20520;-82
2021/08/30 06:09:59;;;;;;;6.30;5.80;;;;;;;22.51;53.16;94667.03;5075473;28;20530;-82
2021/08/30 06:12:26;;;;;;;6.73;6.03;;;;;;;22.55;54.13;94666.44;5075387;28;20435;-82
2021/08/30 06:14:53;;;;;;;8.55;6.43;;;;;;;22.41;54.38;94670.13;5076179;28;20453;-82
2021/08/30 06:17:19;;;;;;;8.13;6.27;;;;;;;22.56;54.54;94664.56;5075328;28;20283;-82
2021/08/30 06:19:48;;;;;;;5.67;5.13;;;;;;;22.89;55.10;94669.03;5076242;28;20483;-83
2021/08/30 06:22:17;;;;;;;7.60;6.53;;;;;;;22.78;53.23;94673.13;5076051;28;20477;-83
2021/08/30 06:24:47;;;;;;;6.80;5.87;;;;;;;22.61;53.55;94667.44;5074582;28;20782;-83
2021/08/30 06:27:14;;;;;;;6.00;5.00;;;;;;;22.52;53.13;94666.00;5074014;28;20801;-82
2021/08/30 06:29:41;;;;;;;7.47;6.33;;;;;;;22.54;54.70;94669.28;5075212;28;20477;-83
2021/08/30 06:32:09;;;;;;;6.40;5.67;;;;;;;22.60;54.20;94673.81;5074046;28;20543;-83
2021/08/30 06:34:36;;;;;;;6.30;5.70;;;;;;;22.63;53.14;94670.72;5074584;28;20446;-83
2021/08/30 06:37:05;;;;;;;8.30;5.80;;;;;;;22.48;53.24;94664.78;5074467;28;20464;-83
2021/08/30 06:39:32;;;;;;;5.97;5.37;;;;;;;22.65;54.24;94674.00;5038367;28;21696;-83
2021/08/30 06:41:59;;;;;;;7.60;5.87;;;;;;;22.83;53.65;94668.00;5075331;28;20515;-83
2021/08/30 06:44:26;;;;;;;6.53;5.80;;;;;;;22.69;54.08;94672.56;5074935;28;20437;-83
2021/08/30 06:46:52;;;;;;;7.93;5.80;;;;;;;22.44;54.52;94677.75;5023456;28;20526;-83
2021/08/30 06:49:32;;;;;;;8.63;6.10;;;;;;;22.61;54.29;94680.81;5075361;28;20522;-83
2021/08/30 06:51:59;;;;;;;7.20;6.50;;;;;;;22.58;54.68;94675.88;5074645;28;20535;-82
2021/08/30 06:54:27;;;;;;;6.10;5.07;;;;;;;22.73;54.58;94684.47;5074275;28;20540;-83
2021/08/30 06:56:54;;;;;;;6.27;5.43;;;;;;;22.83;54.02;94676.84;5075049;28;20512;-83
2021/08/30 06:59:21;;;;;;;6.00;5.50;;;;;;;22.96;55.25;94675.19;5074869;28;20566;-83
2021/08/30 07:01:48;;;;;;;5.97;5.13;;;;;;;23.11;54.28;94678.41;5074708;28;20509;-83
2021/08/30 07:04:15;;;;;;;5.60;5.13;;;;;;;23.09;53.61;94675.94;5074910;28;20526;-83
2021/08/30 07:06:42;;;;;;;5.90;5.30;;;;;;;23.28;53.85;94671.53;5074834;28;20555;-83
2021/08/30 07:09:09;;;;;;;6.43;5.80;;;;;;;23.42;53.36;94681.16;5073613;28;20925;-84
2021/08/30 07:11:38;;;;;;;6.33;5.70;;;;;;;23.39;52.73;94681.56;5074730;28;20926;-83
2021/08/30 07:14:05;;;;;;;6.63;6.00;;;;;;;23.57;53.68;94677.41;5075066;28;20525;-83
2021/08/30 07:16:37;;;;;;;6.80;6.20;;;;;;;23.71;51.65;94681.66;5072767;28;20514;-83
2021/08/30 07:19:04;;;;;;;6.30;5.80;;;;;;;23.72;51.36;94681.44;5054684;28;20212;-83
2021/08/30 07:21:31;;;;;;;8.00;5.60;;;;;;;23.71;51.59;94682.47;5054569;28;20782;-85
2021/08/30 07:23:58;;;;;;;6.97;6.27;;;;;;;23.37;53.34;94688.19;5053231;28;20446;-83
2021/08/30 07:26:25;;;;;;;8.70;6.03;;;;;;;23.53;53.21;94684.19;5054162;28;20535;-83
2021/08/30 07:28:53;;;;;;;5.97;5.47;;;;;;;23.63;51.55;94682.69;5054454;28;20919;-83
2021/08/30 07:31:20;;;;;;;7.10;6.03;;;;;;;23.66;52.57;94684.13;5027779;28;20475;-83
2021/08/30 07:33:47;;;;;;;5.93;5.33;;;;;;;23.49;51.44;94684.63;5016371;28;20454;-83
2021/08/30 07:36:16;;;;;;;7.40;5.23;;;;;;;23.54;53.47;94683.97;5074038;28;20528;-83
2021/08/30 07:38:43;;;;;;;8.67;5.80;;;;;;;23.51;51.96;94687.09;5073556;28;20933;-83
2021/08/30 07:41:10;;;;;;;5.60;5.07;;;;;;;23.38;53.08;94679.94;5073777;28;20446;-83
2021/08/30 07:43:37;;;;;;;6.30;5.80;;;;;;;23.48;54.23;94685.66;5072343;28;20524;-83
2021/08/30 07:46:05;;;;;;;6.13;5.53;;;;;;;23.50;53.31;94682.75;5073987;28;20290;-81
2021/08/30 07:48:32;;;;;;;6.47;5.37;;;;;;;23.77;53.80;94688.81;5074158;28;20442;-82
2021/08/30 07:50:59;;;;;;;6.50;5.90;;;;;;;23.95;52.55;94686.19;5074016;28;20517;-82
2021/08/30 07:53:28;;;;;;;10.63;5.97;;;;;;;24.24;51.99;94689.28;5074361;28;20447;-82
2021/08/30 07:55:56;;;;;;;6.30;5.70;;;;;;;24.58;51.78;94680.75;5074226;28;20478;-82
2021/08/30 07:58:23;;;;;;;5.70;5.20;;;;;;;24.87;51.50;94684.59;5022357;28;20446;-82
2021/08/30 08:00:51;;;;;;;8.30;5.87;;;;;;;24.99;48.92;94692.75;5073567;28;20953;-82
2021/08/30 08:03:19;;;;;;;6.93;5.33;;;;;;;24.99;49.02;94684.69;5021552;28;20441;-83
2021/08/30 08:05:46;;;;;;;9.50;6.60;;;;;;;24.91;48.81;94685.78;5073965;28;20832;-81
2021/08/30 08:08:13;;;;;;;7.63;6.07;;;;;;;25.05;49.74;94685.66;5073445;28;20878;-81
2021/08/30 08:10:41;;;;;;;6.70;6.00;;;;;;;24.71;48.75;94685.16;5038815;28;20534;-82
2021/08/30 08:13:08;;;;;;;6.30;5.70;;;;;;;24.20;50.09;94682.72;5074041;28;20451;-86
2021/08/30 08:15:35;;;;;;;10.93;4.93;;;;;;;23.94;51.10;94679.19;5022199;28;20471;-84
2021/08/30 08:18:02;;;;;;;5.20;4.70;;;;;;;23.79;52.11;94681.38;5073919;28;20442;-82
2021/08/30 08:20:31;;;;;;;6.03;5.50;;;;;;;23.79;52.01;94687.56;5073234;28;20924;-82
2021/08/30 08:22:59;;;;;;;7.00;6.30;;;;;;;23.80;52.16;94685.69;5073484;28;20807;-84
2021/08/30 08:25:26;;;;;;;5.83;5.27;;;;;;;23.75;51.37;94682.84;5071828;28;20440;-84
2021/08/30 08:27:53;;;;;;;7.53;6.17;;;;;;;23.91;51.72;94690.34;5073170;28;20443;-82
2021/08/30 08:30:21;;;;;;;11.10;5.90;;;;;;;24.00;52.16;94685.56;5073400;28;20488;-84
2021/08/30 08:32:48;;;;;;;6.47;5.97;;;;;;;23.93;51.66;94676.72;5073175;28;20530;-82
2021/08/30 08:35:16;;;;;;;6.33;5.40;;;;;;;24.02;52.58;94678.94;5037404;28;20520;-83
2021/08/30 08:37:44;;;;;;;7.60;6.20;;;;;;;23.72;52.28;94684.13;5037592;28;20954;-83
2021/08/30 08:40:12;;;;;;;8.53;6.10;;;;;;;23.59;52.84;94681.50;5073348;28;20492;-83
2021/08/30 08:42:41;;;;;;;6.73;5.50;;;;;;;23.46;53.15;94685.06;5072996;28;20472;-85
2021/08/30 08:45:11;;;;;;;6.70;6.00;;;;;;;23.44;53.55;94681.78;5073579;28;20451;-84
2021/08/30 08:47:40;;;;;;;6.77;6.03;;;;;;;23.23;54.94;94675.91;5073384;28;21001;-83
2021/08/30 08:50:09;;;;;;;10.43;6.57;;;;;;;23.57;54.73;94675.53;5074151;28;20493;-85
2021/08/30 08:52:36;;;;;;;7.10;6.43;;;;;;;23.71;53.54;94673.63;5076280;28;20507;-88
2021/08/30 08:55:05;;;;;;;6.83;6.23;;;;;;;23.90;53.58;94674.50;5073159;28;20431;-88
2021/08/30 08:57:32;;;;;;;6.27;5.67;;;;;;;23.74;53.12;94682.03;5073068;28;20535;-83
2021/08/30 09:00:00;;;;;;;6.30;5.70;;;;;;;23.67;52.59;94678.56;5073131;28;20480;-84
2021/08/30 09:02:28;;;;;;;6.50;5.40;;;;;;;23.61;52.38;94674.06;5072561;28;20509;-85
2021/08/30 09:04:57;;;;;;;6.47;5.20;;;;;;;23.89;54.21;94665.63;5073277;28;20442;-83
2021/08/30 09:07:32;;;;;;;6.60;6.00;;;;;;;23.97;52.22;94672.56;5073057;28;20776;-83
2021/08/30 09:10:00;;;;;;;6.50;5.90;;;;;;;24.06;52.50;94680.16;5072775;28;20929;-85
2021/08/30 09:12:29;;;;;;;8.70;6.20;;;;;;;24.12;52.71;94677.63;5072607;28;20541;-84
2021/08/30 09:14:57;;;;;;;5.60;5.07;;;;;;;24.03;52.24;94677.91;5072690;28;20533;-84
2021/08/30 09:17:24;;;;;;;6.40;5.90;;;;;;;23.77;51.30;94670.88;5071839;28;20455;-84
2021/08/30 09:19:54;;;;;;;6.30;5.70;;;;;;;23.87;51.85;94672.25;5071540;28;20993;-84
2021/08/30 09:22:31;;;;;;;6.03;5.50;;;;;;;23.96;51.88;94671.75;5071563;28;20803;-84
2021/08/30 09:25:06;;;;;;;6.60;6.00;;;;;;;23.93;50.76;94672.19;5071638;28;20481;-84
2021/08/30 09:27:39;;;;;;;7.73;5.70;;;;;;;23.58;51.98;94673.69;5071543;28;20528;-84
2021/08/30 09:30:11;;;;;;;5.93;5.43;;;;;;;23.54;52.08;94667.09;5071415;28;20458;-84
2021/08/30 09:32:38;;;;;;;5.63;5.17;;;;;;;23.40;51.28;94667.13;5071325;28;20497;-85
2021/08/30 09:35:07;;;;;;;5.97;5.50;;;;;;;23.48;51.64;94666.91;5071943;28;20527;-85
2021/08/30 09:37:37;;;;;;;6.03;5.53;;;;;;;23.47;49.99;94670.63;5072110;28;20534;-84
2021/08/30 09:40:07;;;;;;;6.90;6.30;;;;;;;23.40;51.24;94671.66;5071162;28;20509;-84
2021/08/30 09:42:36;;;;;;;6.30;5.80;;;;;;;23.18;50.75;94673.88;5071268;28;20441;-84
2021/08/30 09:45:11;;;;;;;7.10;6.50;;;;;;;23.33;50.44;94671.72;5071943;28;20529;-85
2021/08/30 09:47:49;;;;;;;7.77;7.17;;;;;;;23.37;52.23;94669.44;5075376;28;20477;-84
2021/08/30 09:50:16;;;;;;;7.13;6.43;;;;;;;23.39;51.73;94668.19;5075044;28;20442;-84
2021/08/30 09:52:43;;;;;;;7.20;6.30;;;;;;;23.58;50.71;94668.31;5074864;28;20870;-84
2021/08/30 09:55:11;;;;;;;7.77;7.07;;;;;;;23.47;50.62;94669.81;5074965;28;21016;-84
2021/08/30 09:57:48;;;;;;;8.03;7.23;;;;;;;23.42;51.28;94680.34;5074953;28;20535;-84
2021/08/30 10:00:16;;;;;;;6.60;6.10;;;;;;;23.32;51.96;94674.59;5075040;28;20473;-84
2021/08/30 10:02:44;;;;;;;7.03;6.47;;;;;;;23.41;52.09;94667.97;5074796;28;20521;-83
2021/08/30 10:05:12;;;;;;;7.17;6.60;;;;;;;23.50;51.96;94672.06;5075150;28;20953;-84
2021/08/30 10:07:40;;;;;;;6.80;6.10;;;;;;;23.52;53.25;94677.19;5075252;28;20547;-84
2021/08/30 10:10:08;;;;;;;7.30;6.60;;;;;;;23.75;52.74;94680.19;5074644;28;20458;-84
2021/08/30 10:12:36;;;;;;;8.60;6.80;;;;;;;23.63;51.10;94679.19;5023145;28;20446;-84
2021/08/30 10:15:05;;;;;;;7.20;6.60;;;;;;;23.52;52.77;94674.50;5074444;28;20937;-84
2021/08/30 10:17:32;;;;;;;7.70;6.60;;;;;;;23.37;50.97;94666.75;5074523;28;20521;-84
2021/08/30 10:20:01;;;;;;;8.33;6.60;;;;;;;23.32;52.04;94664.72;5074730;28;20482;-84
2021/08/30 10:22:28;;;;;;;9.47;7.33;;;;;;;23.24;52.47;94670.34;5074588;28;20531;-83
2021/08/30 10:24:55;;;;;;;7.67;6.97;;;;;;;23.29;52.05;94667.81;5074345;28;20528;-84
2021/08/30 10:27:33;;;;;;;7.67;6.87;;;;;;;23.26;52.47;94670.13;5074334;28;20452;-84
2021/08/30 10:30:08;;;;;;;7.80;6.60;;;;;;;23.37;50.57;94664.88;5074600;28;20547;-84
2021/08/30 10:32:44;;;;;;;6.87;6.10;;;;;;;23.21;50.46;94662.72;5074451;28;20888;-84
2021/08/30 10:35:17;;;;;;;9.20;7.40;;;;;;;23.13;50.28;94662.94;5074467;28;20460;-84
2021/08/30 10:37:49;;;;;;;8.60;7.03;;;;;;;22.96;51.29;94662.63;5022860;28;20444;-84
2021/08/30 10:40:17;;;;;;;7.70;7.00;;;;;;;22.97;53.26;94660.78;5074562;28;20487;-83
2021/08/30 10:42:44;;;;;;;7.47;6.77;;;;;;;23.00;52.27;94660.34;5075233;28;20536;-85
2021/08/30 10:45:13;;;;;;;9.17;6.20;;;;;;;23.07;52.47;94653.91;5075401;28;20543;-86
2021/08/30 10:47:40;;;;;;;7.13;6.43;;;;;;;23.22;51.52;94653.66;5074994;28;20445;-84
2021/08/30 10:50:19;;;;;;;6.90;6.30;;;;;;;23.34;52.80;94662.66;5075180;28;20450;-84
2021/08/30 10:52:46;;;;;;;7.40;6.47;;;;;;;23.36;53.00;94646.38;5075156;28;20481;-84
2021/08/30 10:55:18;;;;;;;7.73;6.63;;;;;;;23.55;53.20;94652.66;5075933;28;20537;-83
2021/08/30 10:57:50;;;;;;;6.80;6.20;;;;;;;23.66;51.61;94647.44;5075791;28;20438;-85
2021/08/30 11:00:30;;;;;;;6.20;5.70;;;;;;;23.70;50.69;94650.50;5074962;28;20488;-85
2021/08/30 11:02:57;;;;;;;7.90;7.00;;;;;;;23.72;49.17;94651.13;5074916;28;20469;-84
2021/08/30 11:05:27;;;;;;;9.17;6.90;;;;;;;23.68;49.06;94636.50;5074944;28;20534;-84
2021/08/30 11:07:54;;;;;;;7.90;7.10;;;;;;;23.60;51.17;94645.63;5077475;28;20882;-84
2021/08/30 11:10:24;;;;;;;7.20;6.57;;;;;;;23.62;50.09;94653.44;5074867;28;20518;-85
2021/08/30 11:12:51;;;;;;;6.80;6.13;;;;;;;23.52;49.73;94648.53;5076021;28;20450;-85
2021/08/30 11:15:20;;;;;;;6.93;6.33;;;;;;;23.38;50.01;94650.47;5074465;28;20444;-84
2021/08/30 11:17:47;;;;;;;6.33;5.80;;;;;;;23.52;50.07;94651.22;5075179;28;20469;-84
2021/08/30 11:20:18;;;;;;;6.33;5.73;;;;;;;23.62;49.60;94646.25;5074096;28;20572;-84
2021/08/30 11:22:52;;;;;;;7.10;6.50;;;;;;;23.72;51.10;94651.97;5052656;28;20434;-84
2021/08/30 11:25:19;;;;;;;6.70;6.10;;;;;;;23.84;51.10;94648.56;5066574;28;20442;-84
2021/08/30 11:27:46;;;;;;;6.70;6.10;;;;;;;23.94;50.19;94644.34;5074152;28;20526;-84
2021/08/30 11:30:14;;;;;;;6.50;6.00;;;;;;;23.98;50.32;94637.50;5019617;28;20884;-84
2021/08/30 11:32:43;;;;;;;7.00;6.30;;;;;;;23.85;48.48;94639.50;5054126;28;20819;-83
2021/08/30 11:35:15;;;;;;;6.83;6.13;;;;;;;23.76;48.50;94639.75;5073579;28;20542;-84
2021/08/30 11:37:42;;;;;;;7.50;6.80;;;;;;;23.77;51.37;94641.41;5073750;28;20520;-83